createdAt,value
2022-12-24T00:01:21.518Z,0.00
2022-12-24T00:03:49.832Z,0.00
2022-12-24T00:06:20.827Z,0.00
2022-12-24T00:08:48.652Z,0.80
2022-12-24T00:11:16.216Z,0.00
2022-12-24T00:13:44.172Z,0.00
2022-12-24T00:16:11.988Z,1.00
2022-12-24T00:18:45.551Z,0.60
2022-12-24T00:21:15.512Z,0.00
2022-12-24T00:23:43.326Z,0.80
2022-12-24T00:26:11.412Z,0.00
2022-12-24T00:28:38.964Z,2.00
2022-12-24T00:31:15.230Z,0.00
2022-12-24T00:33:43.323Z,0.00
2022-12-24T00:36:11.362Z,1.80
2022-12-24T00:38:39.990Z,0.00
2022-12-24T00:41:25.395Z,0.80
2022-12-24T00:43:58.928Z,0.20
2022-12-24T00:46:28.123Z,0.00
2022-12-24T00:48:56.209Z,0.00
2022-12-24T00:51:24.468Z,0.00
2022-12-24T00:53:52.673Z,0.20
2022-12-24T00:56:20.883Z,0.00
2022-12-24T00:58:48.804Z,0.00
2022-12-24T01:01:17.022Z,0.00
2022-12-24T01:03:44.913Z,0.00
2022-12-24T01:06:18.426Z,1.00
2022-12-24T01:08:46.421Z,0.00
2022-12-24T01:11:14.258Z,0.00
2022-12-24T01:13:42.158Z,0.00
2022-12-24T01:16:22.121Z,0.00
2022-12-24T01:18:49.724Z,1.60
2022-12-24T01:21:17.774Z,0.00
2022-12-24T01:23:45.602Z,0.00
2022-12-24T01:26:13.238Z,0.60
2022-12-24T01:28:41.810Z,0.00
2022-12-24T01:31:17.718Z,0.20
2022-12-24T01:33:47.278Z,0.80
2022-12-24T01:36:15.133Z,0.20
2022-12-24T01:38:42.696Z,3.60
2022-12-24T01:41:36.277Z,0.00
2022-12-24T01:44:21.944Z,0.00
2022-12-24T01:46:53.924Z,0.00
2022-12-24T01:49:21.981Z,4.00
2022-12-24T01:51:56.688Z,0.00
2022-12-24T01:55:00.730Z,0.00
2022-12-24T01:57:34.291Z,1.00
2022-12-24T02:00:09.016Z,0.60
2022-12-24T02:02:37.625Z,1.00
2022-12-24T02:05:15.210Z,0.40
2022-12-24T02:07:43.681Z,0.00
2022-12-24T02:10:14.731Z,0.20
2022-12-24T02:12:44.157Z,0.20
2022-12-24T02:15:15.354Z,0.00
2022-12-24T02:18:21.672Z,1.00
2022-12-24T02:21:20.031Z,0.00
2022-12-24T02:24:11.407Z,1.00
2022-12-24T02:27:09.525Z,1.40
2022-12-24T02:30:00.300Z,0.40
2022-12-24T02:33:05.185Z,1.00
2022-12-24T02:35:35.730Z,1.00
2022-12-24T02:38:32.531Z,1.00
2022-12-24T02:41:08.376Z,0.00
2022-12-24T02:43:40.065Z,0.60
2022-12-24T02:46:16.065Z,0.00
2022-12-24T02:48:47.178Z,0.00
2022-12-24T02:51:15.379Z,2.40
2022-12-24T02:53:43.213Z,1.00
2022-12-24T02:56:24.830Z,1.20
2022-12-24T02:58:58.239Z,0.00
2022-12-24T03:01:46.785Z,0.00
2022-12-24T03:04:39.681Z,0.00
2022-12-24T03:07:13.480Z,0.00
2022-12-24T03:10:05.008Z,0.40
2022-12-24T03:12:51.143Z,0.00
2022-12-24T03:15:22.259Z,0.00
2022-12-24T03:17:52.655Z,0.00
2022-12-24T03:20:27.102Z,7.20
2022-12-24T03:22:54.289Z,0.00
2022-12-24T03:25:25.739Z,0.00
2022-12-24T03:27:54.403Z,2.40
2022-12-24T03:30:21.889Z,0.00
2022-12-24T03:32:49.421Z,0.00
2022-12-24T03:35:16.838Z,1.60
2022-12-24T03:37:44.295Z,0.20
2022-12-24T03:40:12.122Z,0.00
2022-12-24T03:42:39.411Z,0.00
2022-12-24T03:45:07.367Z,1.40
2022-12-24T03:47:34.823Z,0.40
2022-12-24T03:50:02.320Z,0.00
2022-12-24T03:52:29.744Z,0.00
2022-12-24T03:54:57.301Z,0.20
2022-12-24T03:57:25.051Z,0.00
2022-12-24T03:59:52.920Z,0.20
2022-12-24T04:02:21.697Z,0.00
2022-12-24T04:04:49.242Z,1.40
2022-12-24T04:07:16.951Z,0.00
2022-12-24T04:09:44.436Z,0.00
2022-12-24T04:12:11.980Z,0.00
2022-12-24T04:14:39.639Z,0.00
2022-12-24T04:17:07.318Z,0.00
2022-12-24T04:19:34.774Z,0.00
2022-12-24T04:22:02.397Z,0.00
2022-12-24T04:24:29.992Z,0.00
2022-12-24T04:26:57.648Z,0.00
2022-12-24T04:29:25.045Z,0.00
2022-12-24T04:31:52.396Z,0.75
2022-12-24T04:34:19.877Z,0.25
2022-12-24T04:36:47.363Z,0.00
2022-12-24T04:39:14.941Z,1.00
2022-12-24T04:41:42.515Z,0.00
2022-12-24T04:44:10.660Z,0.00
2022-12-24T04:46:38.465Z,0.00
2022-12-24T04:49:06.131Z,0.00
2022-12-24T04:51:33.767Z,0.00
2022-12-24T04:54:01.667Z,1.00
2022-12-24T04:56:31.657Z,0.00
2022-12-24T04:59:00.476Z,0.00
2022-12-24T05:01:31.530Z,0.00
2022-12-24T05:03:59.652Z,0.00
2022-12-24T05:06:30.817Z,0.00
2022-12-24T05:08:59.423Z,0.00
2022-12-24T05:11:27.759Z,0.00
2022-12-24T05:13:55.470Z,0.00
2022-12-24T05:16:23.872Z,0.00
2022-12-24T05:18:51.359Z,1.00
2022-12-24T05:21:21.899Z,0.00
2022-12-24T05:24:08.210Z,0.00
2022-12-24T05:26:51.588Z,0.00
2022-12-24T05:29:19.505Z,1.00
2022-12-24T05:31:47.732Z,0.25
2022-12-24T05:34:17.338Z,0.00
2022-12-24T05:36:45.230Z,0.25
2022-12-24T05:39:17.403Z,0.00
2022-12-24T05:41:45.930Z,0.00
2022-12-24T05:44:13.672Z,0.00
2022-12-24T05:46:41.261Z,0.50
2022-12-24T05:49:09.201Z,0.00
2022-12-24T05:51:36.687Z,0.00
2022-12-24T05:54:04.103Z,0.00
2022-12-24T05:56:31.466Z,0.75
2022-12-24T05:58:58.942Z,3.25
2022-12-24T06:01:27.247Z,3.00
2022-12-24T06:03:54.619Z,1.25
2022-12-24T06:06:24.501Z,3.00
2022-12-24T06:08:53.754Z,1.00
2022-12-24T06:11:24.907Z,1.50
2022-12-24T06:13:54.049Z,0.00
2022-12-24T06:16:22.500Z,1.00
2022-12-24T06:18:49.962Z,0.00
2022-12-24T06:21:17.649Z,0.00
2022-12-24T06:23:45.926Z,0.00
2022-12-24T06:26:19.488Z,3.00
2022-12-24T06:28:47.436Z,0.25
2022-12-24T06:31:18.304Z,0.00
2022-12-24T06:33:45.816Z,0.00
2022-12-24T06:36:18.245Z,0.00
2022-12-24T06:38:46.888Z,3.25
2022-12-24T06:41:14.906Z,0.25
2022-12-24T06:43:50.270Z,3.75
2022-12-24T06:46:18.386Z,2.25
2022-12-24T06:48:46.463Z,1.25
2022-12-24T06:51:15.341Z,0.50
2022-12-24T06:53:42.826Z,0.00
2022-12-24T06:56:13.189Z,1.00
2022-12-24T06:58:41.413Z,0.75
2022-12-24T07:01:12.026Z,0.00
2022-12-24T07:03:40.076Z,0.00
2022-12-24T07:06:08.628Z,0.75
2022-12-24T07:08:36.657Z,0.00
2022-12-24T07:11:04.324Z,0.00
2022-12-24T07:13:33.422Z,0.00
2022-12-24T07:16:05.460Z,1.00
2022-12-24T07:18:33.600Z,3.00
2022-12-24T07:21:01.580Z,0.50
2022-12-24T07:23:28.980Z,0.50
2022-12-24T07:25:56.540Z,0.75
2022-12-24T07:28:27.836Z,5.00
2022-12-24T07:30:57.294Z,3.50
2022-12-24T07:33:26.526Z,1.00
2022-12-24T07:36:07.853Z,0.00
2022-12-24T07:38:35.881Z,1.00
2022-12-24T07:41:03.296Z,3.25
2022-12-24T07:43:33.106Z,0.00
2022-12-24T07:46:00.720Z,0.00
2022-12-24T07:48:29.829Z,1.00
2022-12-24T07:50:58.191Z,0.80
2022-12-24T07:53:29.643Z,1.40
2022-12-24T07:56:10.511Z,0.00
2022-12-24T07:58:40.122Z,6.40
2022-12-24T08:01:08.228Z,16.60
2022-12-24T08:03:35.904Z,4.80
2022-12-24T08:06:03.678Z,12.80
2022-12-24T08:08:31.523Z,4.00
2022-12-24T08:11:07.129Z,15.20
2022-12-24T08:13:35.207Z,10.80
2022-12-24T08:16:02.891Z,30.20
2022-12-24T08:18:30.558Z,11.80
2022-12-24T08:20:58.176Z,2.00
2022-12-24T08:23:25.626Z,1.80
2022-12-24T08:25:53.405Z,2.80
2022-12-24T08:28:21.463Z,1.60
2022-12-24T08:30:50.366Z,4.00
2022-12-24T08:33:18.214Z,1.80
2022-12-24T08:35:54.763Z,3.40
2022-12-24T08:38:22.957Z,3.40
2022-12-24T08:40:52.975Z,0.00
2022-12-24T08:43:21.314Z,3.40
2022-12-24T08:45:51.993Z,2.80
2022-12-24T08:48:19.762Z,0.00
2022-12-24T08:50:47.372Z,2.60
2022-12-24T08:53:15.003Z,1.20
2022-12-24T08:55:42.562Z,7.00
2022-12-24T08:58:10.092Z,7.60
2022-12-24T09:00:37.668Z,6.00
2022-12-24T09:03:04.990Z,5.20
2022-12-24T09:05:32.691Z,0.40
2022-12-24T09:08:00.015Z,3.40
2022-12-24T09:10:27.371Z,5.60
2022-12-24T09:12:54.703Z,6.00
2022-12-24T09:15:21.991Z,4.20
2022-12-24T09:17:49.571Z,4.60
2022-12-24T09:20:16.949Z,2.40
2022-12-24T09:22:44.821Z,5.40
2022-12-24T09:25:12.564Z,7.20
2022-12-24T09:27:40.137Z,3.60
2022-12-24T09:30:08.543Z,2.80
2022-12-24T09:32:36.064Z,4.80
2022-12-24T09:35:03.572Z,2.60
2022-12-24T09:37:30.929Z,2.40
2022-12-24T09:39:58.343Z,3.20
2022-12-24T09:42:42.615Z,2.80
2022-12-24T09:45:16.383Z,5.20
2022-12-24T09:48:16.580Z,3.80
2022-12-24T09:51:10.571Z,2.20
2022-12-24T09:54:18.216Z,1.00
2022-12-24T09:56:48.737Z,2.40
2022-12-24T09:59:26.045Z,2.00
2022-12-24T10:01:55.526Z,1.60
2022-12-24T10:04:31.521Z,3.00
2022-12-24T10:07:04.953Z,2.00
2022-12-24T10:10:07.598Z,2.60
2022-12-24T10:13:16.398Z,6.00
2022-12-24T10:16:09.255Z,3.20
2022-12-24T10:18:49.590Z,3.40
2022-12-24T10:21:44.336Z,5.20
2022-12-24T10:24:14.755Z,6.40
2022-12-24T10:26:54.062Z,2.80
2022-12-24T10:29:34.777Z,12.60
2022-12-24T10:32:08.249Z,15.20
2022-12-24T10:34:48.692Z,7.20
2022-12-24T10:37:22.836Z,13.00
2022-12-24T10:39:50.567Z,6.20
2022-12-24T10:42:19.143Z,7.00
2022-12-24T10:44:51.586Z,9.40
2022-12-24T10:47:22.432Z,10.20
2022-12-24T10:50:03.423Z,9.00
2022-12-24T10:52:35.595Z,7.00
2022-12-24T10:55:28.536Z,6.00
2022-12-24T10:58:04.157Z,6.00
2022-12-24T11:00:36.257Z,3.80
2022-12-24T11:03:12.296Z,5.60
2022-12-24T11:05:40.967Z,6.80
2022-12-24T11:08:14.318Z,3.40
2022-12-24T11:10:55.691Z,8.20
2022-12-24T11:13:37.396Z,5.20
2022-12-24T11:16:16.294Z,7.20
2022-12-24T11:18:52.101Z,7.00
2022-12-24T11:21:29.331Z,6.80
2022-12-24T11:24:13.220Z,5.80
2022-12-24T11:26:43.170Z,4.60
2022-12-24T11:29:23.138Z,4.20
2022-12-24T11:31:53.084Z,5.40
2022-12-24T11:34:30.311Z,4.40
2022-12-24T11:37:14.947Z,4.00
2022-12-24T11:39:54.567Z,7.20
2022-12-24T11:42:38.999Z,4.80
2022-12-24T11:45:17.674Z,4.00
2022-12-24T11:47:45.319Z,3.40
2022-12-24T11:50:25.090Z,3.60
2022-12-24T11:53:04.964Z,4.40
2022-12-24T11:55:48.540Z,4.20
2022-12-24T11:59:06.390Z,0.00
2022-12-24T12:01:39.886Z,2.00
2022-12-24T12:04:12.016Z,4.00
2022-12-24T12:06:55.793Z,6.60
2022-12-24T12:09:31.620Z,6.60
2022-12-24T12:12:34.997Z,3.60
2022-12-24T12:15:20.703Z,4.00
2022-12-24T12:18:11.649Z,2.80
2022-12-24T12:20:47.041Z,4.60
2022-12-24T12:23:37.688Z,5.00
2022-12-24T12:26:29.364Z,5.00
2022-12-24T12:29:18.645Z,3.60
2022-12-24T12:31:51.307Z,4.40
2022-12-24T12:34:38.639Z,6.60
2022-12-24T12:37:15.044Z,2.80
2022-12-24T12:39:43.763Z,1.00
2022-12-24T12:42:31.314Z,1.00
2022-12-24T12:45:34.648Z,5.20
2022-12-24T12:48:37.526Z,4.40
2022-12-24T12:51:35.299Z,1.80
2022-12-24T12:54:40.405Z,1.40
2022-12-24T12:57:13.960Z,6.40
2022-12-24T13:00:05.909Z,4.00
2022-12-24T13:02:52.053Z,3.40
2022-12-24T13:05:48.536Z,4.60
2022-12-24T13:08:36.463Z,3.00
2022-12-24T13:11:22.756Z,5.40
2022-12-24T13:14:13.605Z,4.00
2022-12-24T13:16:57.566Z,2.60
2022-12-24T13:19:39.144Z,0.80
2022-12-24T13:22:16.365Z,4.00
2022-12-24T13:24:54.727Z,12.60
2022-12-24T13:27:26.522Z,7.40
2022-12-24T13:30:31.352Z,8.60
2022-12-24T13:32:58.812Z,24.20
2022-12-24T13:35:37.960Z,11.60
2022-12-24T13:38:27.754Z,25.40
2022-12-24T13:40:56.216Z,29.50
2022-12-24T13:43:23.648Z,23.00
2022-12-24T13:45:52.556Z,14.60
2022-12-24T13:48:31.655Z,4.80
2022-12-24T13:51:18.349Z,3.60
2022-12-24T13:53:49.054Z,3.80
2022-12-24T13:56:16.869Z,2.40
2022-12-24T13:58:51.046Z,6.00
2022-12-24T14:01:33.634Z,4.50
2022-12-24T14:04:04.305Z,4.40
2022-12-24T14:06:41.543Z,3.20
2022-12-24T14:09:17.591Z,2.60
2022-12-24T14:12:00.031Z,1.00
2022-12-24T14:14:41.514Z,3.80
2022-12-24T14:17:14.890Z,2.80
2022-12-24T14:19:45.079Z,1.00
2022-12-24T14:22:29.557Z,2.75
2022-12-24T14:25:11.735Z,3.60
2022-12-24T14:28:02.207Z,3.00
2022-12-24T14:30:31.462Z,3.75
2022-12-24T14:32:58.943Z,4.80
2022-12-24T14:35:29.703Z,3.00
2022-12-24T14:38:30.032Z,8.75
2022-12-24T14:41:18.853Z,1.00
2022-12-24T14:44:05.352Z,2.50
2022-12-24T14:46:43.106Z,1.00
2022-12-24T14:49:31.655Z,0.80
2022-12-24T14:52:30.581Z,1.00
2022-12-24T14:54:58.172Z,2.50
2022-12-24T14:57:27.111Z,1.00
2022-12-24T14:59:59.998Z,3.00
2022-12-24T15:02:52.702Z,3.75
2022-12-24T15:05:25.863Z,1.00
2022-12-24T15:07:56.598Z,3.00
2022-12-24T15:10:29.127Z,1.00
2022-12-24T15:12:59.225Z,1.75
2022-12-24T15:15:27.904Z,1.50
2022-12-24T15:17:56.276Z,3.50
2022-12-24T15:20:27.669Z,10.25
2022-12-24T15:22:57.969Z,5.25
2022-12-24T15:25:27.266Z,2.50
2022-12-24T15:27:56.466Z,9.00
2022-12-24T15:30:27.105Z,1.00
2022-12-24T15:32:57.324Z,3.00
2022-12-24T15:35:31.825Z,1.50
2022-12-24T15:37:59.669Z,9.00
2022-12-24T15:40:27.146Z,1.00
2022-12-24T15:42:54.953Z,4.00
2022-12-24T15:45:30.867Z,4.75
2022-12-24T15:48:11.185Z,3.25
2022-12-24T15:50:45.795Z,3.00
2022-12-24T15:53:36.040Z,4.75
2022-12-24T15:56:47.506Z,2.50
2022-12-24T15:59:38.482Z,3.25
2022-12-24T16:02:31.143Z,9.00
2022-12-24T16:05:20.758Z,3.25
2022-12-24T16:08:15.467Z,1.00
2022-12-24T16:11:06.404Z,2.50
2022-12-24T16:13:43.433Z,3.00
2022-12-24T16:16:16.585Z,7.00
2022-12-24T16:18:55.023Z,11.25
2022-12-24T16:21:30.364Z,4.00
2022-12-24T16:24:06.476Z,3.25
2022-12-24T16:26:35.718Z,3.50
2022-12-24T16:29:03.191Z,4.00
2022-12-24T16:31:37.239Z,6.25
2022-12-24T16:34:06.110Z,5.00
2022-12-24T16:36:33.626Z,3.00
2022-12-24T16:39:19.874Z,4.50
2022-12-24T16:42:05.690Z,1.00
2022-12-24T16:44:33.195Z,5.50
2022-12-24T16:47:01.227Z,2.75
2022-12-24T16:49:29.252Z,5.25
2022-12-24T16:51:56.641Z,3.75
2022-12-24T16:54:24.006Z,3.00
2022-12-24T16:56:51.437Z,3.00
2022-12-24T16:59:21.472Z,10.00
2022-12-24T17:01:49.686Z,11.50
2022-12-24T17:04:18.350Z,4.00
2022-12-24T17:06:46.239Z,6.75
2022-12-24T17:09:13.812Z,5.00
2022-12-24T17:11:41.288Z,1.50
2022-12-24T17:14:15.029Z,6.25
2022-12-24T17:16:47.602Z,2.50
2022-12-24T17:19:14.898Z,5.00
2022-12-24T17:21:42.171Z,7.00
2022-12-24T17:24:09.772Z,2.50
2022-12-24T17:26:37.309Z,7.25
2022-12-24T17:29:05.633Z,3.00
2022-12-24T17:31:33.978Z,5.50
2022-12-24T17:34:01.492Z,6.25
2022-12-24T17:36:29.029Z,3.50
2022-12-24T17:38:56.385Z,3.25
2022-12-24T17:41:23.995Z,4.00
2022-12-24T17:43:51.563Z,5.00
2022-12-24T17:46:24.231Z,7.50
2022-12-24T17:48:52.464Z,31.50
2022-12-24T17:51:22.335Z,19.25
2022-12-24T17:53:50.221Z,6.00
2022-12-24T17:56:18.020Z,3.00
2022-12-24T17:58:46.443Z,10.25
2022-12-24T18:01:16.735Z,8.50
2022-12-24T18:03:45.356Z,6.25
2022-12-24T18:06:14.055Z,6.25
2022-12-24T18:08:43.119Z,7.00
2022-12-24T18:11:27.392Z,9.00
2022-12-24T18:13:56.196Z,10.50
2022-12-24T18:16:27.342Z,3.00
2022-12-24T18:18:55.342Z,5.50
2022-12-24T18:21:25.289Z,3.25
2022-12-24T18:23:53.033Z,6.25
2022-12-24T18:26:21.112Z,5.25
2022-12-24T18:28:48.744Z,1.00
2022-12-24T18:31:19.388Z,3.75
2022-12-24T18:33:49.016Z,3.75
2022-12-24T18:36:16.537Z,5.50
2022-12-24T18:38:43.945Z,4.00
2022-12-24T18:41:16.143Z,5.50
2022-12-24T18:43:43.874Z,8.00
2022-12-24T18:46:38.815Z,7.25
2022-12-24T18:49:06.222Z,9.50
2022-12-24T18:51:36.455Z,0.75
2022-12-24T18:54:07.126Z,4.00
2022-12-24T18:56:34.783Z,9.00
2022-12-24T18:59:03.986Z,3.00
2022-12-24T19:01:33.722Z,12.00
2022-12-24T19:04:01.801Z,7.00
2022-12-24T19:06:29.677Z,24.50
2022-12-24T19:09:00.273Z,7.75
2022-12-24T19:11:31.424Z,4.50
2022-12-24T19:13:59.526Z,6.25
2022-12-24T19:16:28.828Z,7.50
2022-12-24T19:18:57.039Z,3.00
2022-12-24T19:21:25.100Z,3.75
2022-12-24T19:23:52.827Z,12.50
2022-12-24T19:26:21.017Z,7.00
2022-12-24T19:28:48.783Z,9.50
2022-12-24T19:31:21.717Z,3.50
2022-12-24T19:33:52.210Z,6.25
2022-12-24T19:36:23.388Z,8.75
2022-12-24T19:38:51.464Z,6.00
2022-12-24T19:41:21.577Z,8.25
2022-12-24T19:43:52.097Z,7.25
2022-12-24T19:46:22.435Z,8.25
2022-12-24T19:48:55.427Z,9.25
2022-12-24T19:51:23.894Z,10.75
2022-12-24T19:53:52.635Z,3.25
2022-12-24T19:56:22.065Z,6.67
2022-12-24T19:58:50.060Z,4.00
2022-12-24T20:01:20.932Z,9.67
2022-12-24T20:03:50.383Z,8.00
2022-12-24T20:06:20.319Z,11.00
2022-12-24T20:08:48.648Z,6.33
2022-12-24T20:11:18.844Z,8.25
2022-12-24T20:13:47.051Z,7.67
2022-12-24T20:16:23.620Z,12.25
2022-12-24T20:18:55.265Z,4.75
2022-12-24T20:21:24.112Z,12.33
2022-12-24T20:23:52.383Z,6.00
2022-12-24T20:26:23.623Z,10.00
2022-12-24T20:28:52.250Z,9.00
2022-12-24T20:31:23.887Z,4.75
2022-12-24T20:33:55.042Z,10.00
2022-12-24T20:36:24.148Z,10.00
2022-12-24T20:38:52.037Z,13.00
2022-12-24T20:41:22.504Z,7.67
2022-12-24T20:43:50.491Z,7.00
2022-12-24T20:46:20.487Z,11.67
2022-12-24T20:48:49.114Z,6.00
2022-12-24T20:51:24.638Z,11.67
2022-12-24T20:53:58.003Z,15.67
2022-12-24T20:56:26.468Z,13.00
2022-12-24T20:58:54.275Z,12.33
2022-12-24T21:01:25.167Z,10.33
2022-12-24T21:03:54.598Z,15.00
2022-12-24T21:06:23.184Z,6.00
2022-12-24T21:08:51.880Z,12.67
2022-12-24T21:11:38.148Z,12.33
2022-12-24T21:14:05.720Z,6.50
2022-12-24T21:16:35.609Z,9.33
2022-12-24T21:19:04.467Z,6.00
2022-12-24T21:21:32.773Z,9.33
2022-12-24T21:24:00.794Z,8.67
2022-12-24T21:26:28.311Z,7.67
2022-12-24T21:28:55.704Z,10.67
2022-12-24T21:31:23.258Z,12.00
2022-12-24T21:33:50.774Z,20.00
2022-12-24T21:36:18.665Z,6.00
2022-12-24T21:38:45.994Z,18.00
2022-12-24T21:41:17.568Z,10.00
2022-12-24T21:43:45.690Z,11.67
2022-12-24T21:46:19.560Z,15.00
2022-12-24T21:49:05.596Z,23.33
2022-12-24T21:51:33.259Z,10.00
2022-12-24T21:54:18.908Z,9.00
2022-12-24T21:57:05.443Z,12.00
2022-12-24T21:59:32.843Z,19.00
2022-12-24T22:02:00.699Z,4.67
2022-12-24T22:04:28.430Z,9.33
2022-12-24T22:07:14.276Z,6.67
2022-12-24T22:10:00.485Z,9.33
2022-12-24T22:12:31.513Z,11.33
2022-12-24T22:14:59.061Z,15.00
2022-12-24T22:17:27.789Z,2.67
2022-12-24T22:19:55.921Z,14.00
2022-12-24T22:22:23.959Z,13.67
2022-12-24T22:24:51.539Z,25.33
2022-12-24T22:27:20.303Z,18.00
2022-12-24T22:29:47.802Z,16.67
2022-12-24T22:32:15.273Z,12.33
2022-12-24T22:34:42.874Z,10.67
2022-12-24T22:37:10.344Z,15.00
2022-12-24T22:39:39.383Z,21.00
2022-12-24T22:42:07.021Z,9.33
2022-12-24T22:44:34.491Z,16.33
2022-12-24T22:47:02.164Z,11.50
2022-12-24T22:49:29.743Z,16.00
2022-12-24T22:51:58.279Z,10.00
2022-12-24T22:54:26.032Z,18.50
2022-12-24T22:56:53.596Z,10.75
2022-12-24T22:59:21.075Z,22.75
2022-12-24T23:01:52.936Z,15.75
2022-12-24T23:04:20.791Z,14.25
2022-12-24T23:06:48.380Z,17.75
2022-12-24T23:09:17.146Z,13.50
2022-12-24T23:11:45.216Z,17.75
2022-12-24T23:14:37.312Z,18.75
2022-12-24T23:17:05.347Z,13.00
2022-12-24T23:19:33.825Z,15.75
2022-12-24T23:22:02.185Z,6.75
2022-12-24T23:24:30.474Z,25.33
2022-12-24T23:26:58.890Z,6.00
2022-12-24T23:29:26.350Z,16.00
2022-12-24T23:31:53.961Z,9.50
2022-12-24T23:34:21.467Z,16.00
2022-12-24T23:36:49.040Z,10.00
2022-12-24T23:39:16.513Z,15.25
2022-12-24T23:41:43.951Z,24.50
2022-12-24T23:44:11.396Z,19.50
2022-12-24T23:46:38.833Z,18.00
2022-12-24T23:49:06.876Z,21.25
2022-12-24T23:51:34.261Z,11.50
2022-12-24T23:54:01.678Z,13.00
2022-12-24T23:56:29.187Z,15.50
2022-12-24T23:58:56.598Z,13.67
